createdAt,value
2018-03-15T00:00:52.236Z,24.20
2018-03-15T00:03:25.584Z,21.87
2018-03-15T00:05:53.358Z,26.93
2018-03-15T00:08:20.926Z,24.70
2018-03-15T00:10:48.532Z,23.43
2018-03-15T00:13:19.590Z,27.80
2018-03-15T00:15:47.195Z,27.97
2018-03-15T00:18:15.547Z,24.90
2018-03-15T00:20:43.114Z,31.17
2018-03-15T00:23:10.736Z,29.10
2018-03-15T00:25:38.307Z,31.93
2018-03-15T00:28:19.572Z,28.57
2018-03-15T00:30:47.157Z,27.00
2018-03-15T00:33:14.746Z,28.37
2018-03-15T00:35:42.357Z,28.23
2018-03-15T00:38:09.920Z,27.50
2018-03-15T00:40:37.491Z,29.10
2018-03-15T00:43:05.104Z,28.30
2018-03-15T00:45:33.446Z,29.43
2018-03-15T00:48:01.045Z,34.17
2018-03-15T00:50:34.212Z,30.90
2018-03-15T00:53:01.778Z,29.23
2018-03-15T00:55:29.348Z,30.30
2018-03-15T00:57:57.715Z,29.40
2018-03-15T01:00:25.273Z,31.43
2018-03-15T01:02:52.863Z,32.27
2018-03-15T01:05:20.439Z,31.93
2018-03-15T01:07:48.013Z,32.63
2018-03-15T01:10:19.498Z,32.73
2018-03-15T01:12:47.073Z,32.83
2018-03-15T01:15:15.416Z,33.77
2018-03-15T01:17:43.018Z,34.50
2018-03-15T01:20:11.368Z,30.20
2018-03-15T01:22:39.004Z,29.80
2018-03-15T01:25:06.565Z,30.93
2018-03-15T01:27:34.135Z,32.57
2018-03-15T01:30:01.757Z,33.93
2018-03-15T01:32:29.335Z,29.60
2018-03-15T01:34:56.902Z,32.80
2018-03-15T01:37:24.514Z,30.70
2018-03-15T01:40:03.147Z,31.37
2018-03-15T01:42:31.494Z,32.10
2018-03-15T01:44:59.089Z,33.30
2018-03-15T01:47:26.687Z,32.60
2018-03-15T01:49:54.254Z,31.57
2018-03-15T01:52:21.852Z,29.67
2018-03-15T01:54:50.219Z,42.30
2018-03-15T02:00:11.632Z,36.40
2018-03-15T02:02:39.205Z,32.23
2018-03-15T02:05:06.772Z,35.17
2018-03-15T02:07:34.355Z,34.70
2018-03-15T02:10:02.690Z,34.90
2018-03-15T02:12:31.055Z,37.73
2018-03-15T02:14:58.612Z,39.40
2018-03-15T02:17:26.224Z,38.40
2018-03-15T02:19:54.554Z,34.77
2018-03-15T02:22:22.228Z,32.97
2018-03-15T02:24:49.823Z,38.70
2018-03-15T02:27:18.172Z,35.47
2018-03-15T02:29:45.770Z,38.47
2018-03-15T02:32:14.098Z,39.80
2018-03-15T02:34:41.700Z,37.83
2018-03-15T02:37:10.040Z,39.57
2018-03-15T02:39:37.657Z,42.43
2018-03-15T02:42:05.214Z,38.97
2018-03-15T02:44:32.791Z,41.07
2018-03-15T02:47:00.380Z,41.23
2018-03-15T02:49:27.971Z,39.63
2018-03-15T02:51:56.315Z,39.77
2018-03-15T02:54:23.944Z,37.47
2018-03-15T02:56:51.518Z,39.40
2018-03-15T02:59:19.123Z,39.80
2018-03-15T03:01:46.700Z,41.03
2018-03-15T03:04:15.034Z,36.73
2018-03-15T03:06:42.629Z,42.20
2018-03-15T03:09:11.001Z,39.10
2018-03-15T03:11:38.576Z,45.33
2018-03-15T03:14:06.920Z,41.53
2018-03-15T03:16:34.506Z,45.63
2018-03-15T03:19:02.101Z,45.60
2018-03-15T03:21:29.708Z,49.67
2018-03-15T03:23:57.998Z,39.93
2018-03-15T03:26:25.590Z,46.33
2018-03-15T03:28:53.207Z,47.70
2018-03-15T03:31:20.815Z,43.90
2018-03-15T03:33:48.390Z,50.80
2018-03-15T03:36:15.998Z,49.20
2018-03-15T03:38:43.594Z,46.77
2018-03-15T03:41:11.169Z,50.10
2018-03-15T03:43:38.727Z,48.40
2018-03-15T03:46:06.326Z,46.47
2018-03-15T03:48:43.538Z,51.83
2018-03-15T03:51:11.895Z,44.27
2018-03-15T03:56:35.340Z,44.43
2018-03-15T03:59:02.922Z,87.30
2018-03-15T04:01:31.285Z,46.80
2018-03-15T04:03:58.883Z,45.20
2018-03-15T04:06:26.461Z,48.57
2018-03-15T04:08:54.823Z,51.07
2018-03-15T04:11:45.025Z,42.60
2018-03-15T04:14:13.369Z,51.07
2018-03-15T04:16:40.941Z,44.33
2018-03-15T04:19:08.555Z,38.50
2018-03-15T04:21:36.150Z,40.20
2018-03-15T04:24:03.749Z,36.50
2018-03-15T04:26:32.100Z,34.97
2018-03-15T04:28:59.668Z,35.60
2018-03-15T04:31:27.269Z,37.93
2018-03-15T04:33:54.846Z,39.93
2018-03-15T04:36:22.453Z,31.07
2018-03-15T04:38:50.010Z,34.40
2018-03-15T04:41:17.563Z,35.63
2018-03-15T04:43:55.728Z,32.87
2018-03-15T04:46:23.293Z,35.80
2018-03-15T04:48:50.869Z,39.70
2018-03-15T04:51:18.440Z,35.17
2018-03-15T04:53:46.014Z,38.17
2018-03-15T04:56:13.607Z,32.93
2018-03-15T04:58:41.181Z,31.40
2018-03-15T05:01:08.775Z,34.13
2018-03-15T05:03:36.348Z,30.07
2018-03-15T05:06:04.742Z,33.70
2018-03-15T05:08:33.081Z,29.77
2018-03-15T05:11:00.722Z,30.80
2018-03-15T05:13:28.287Z,34.23
2018-03-15T05:15:55.857Z,31.13
2018-03-15T05:18:29.459Z,33.87
2018-03-15T05:20:57.155Z,29.60
2018-03-15T05:23:24.790Z,30.03
2018-03-15T05:25:53.124Z,31.30
2018-03-15T05:28:20.688Z,33.40
2018-03-15T05:30:48.300Z,33.13
2018-03-15T05:33:15.874Z,35.93
2018-03-15T05:35:43.447Z,30.17
2018-03-15T05:38:11.804Z,31.40
2018-03-15T05:40:39.399Z,28.97
2018-03-15T05:43:08.717Z,31.03
2018-03-15T05:45:36.307Z,27.93
2018-03-15T05:48:04.663Z,29.37
2018-03-15T05:50:32.248Z,34.37
2018-03-15T05:53:10.633Z,36.97
2018-03-15T05:55:38.258Z,35.10
2018-03-15T05:58:06.592Z,35.60
2018-03-15T06:00:34.173Z,34.97
2018-03-15T06:03:01.768Z,39.10
2018-03-15T06:05:30.097Z,36.53
2018-03-15T06:07:57.693Z,28.53
2018-03-15T06:10:27.961Z,31.87
2018-03-15T06:12:55.729Z,24.07
2018-03-15T06:15:23.319Z,28.93
2018-03-15T06:17:50.887Z,32.40
2018-03-15T06:20:20.499Z,30.37
2018-03-15T06:22:48.235Z,30.00
2018-03-15T06:25:16.913Z,25.13
2018-03-15T06:27:44.569Z,30.03
2018-03-15T06:30:12.141Z,25.97
2018-03-15T06:32:39.742Z,30.43
2018-03-15T06:35:08.916Z,27.17
2018-03-15T06:37:36.516Z,26.70
2018-03-15T06:40:06.061Z,32.07
2018-03-15T06:42:33.624Z,26.53
2018-03-15T06:45:01.215Z,28.13
2018-03-15T06:47:28.795Z,27.07
2018-03-15T06:49:57.158Z,26.53
2018-03-15T06:52:25.501Z,31.53
2018-03-15T06:54:53.054Z,26.53
2018-03-15T06:57:20.644Z,26.30
2018-03-15T06:59:49.933Z,23.80
2018-03-15T07:02:17.503Z,24.43
2018-03-15T07:04:45.099Z,25.13
2018-03-15T07:07:12.695Z,22.10
2018-03-15T07:09:40.271Z,24.40
2018-03-15T07:12:07.875Z,35.23
2018-03-15T07:14:35.439Z,25.50
2018-03-15T07:17:03.025Z,30.77
2018-03-15T07:19:30.613Z,28.27
2018-03-15T07:21:58.205Z,33.43
2018-03-15T07:24:25.774Z,27.30
2018-03-15T07:26:54.146Z,28.90
2018-03-15T07:29:22.487Z,28.50
2018-03-15T07:31:50.123Z,25.60
2018-03-15T07:34:17.737Z,28.63
2018-03-15T07:36:46.086Z,28.73
2018-03-15T07:39:13.666Z,31.73
2018-03-15T07:41:41.242Z,22.77
2018-03-15T07:44:09.600Z,21.13
2018-03-15T07:46:37.171Z,22.43
2018-03-15T07:49:04.738Z,26.07
2018-03-15T07:51:33.091Z,22.97
2018-03-15T07:54:00.774Z,20.90
2018-03-15T07:56:28.525Z,25.53
2018-03-15T07:58:56.132Z,80.40
2018-03-15T08:01:23.715Z,20.50
2018-03-15T08:03:51.274Z,18.03
2018-03-15T08:06:18.868Z,17.07
2018-03-15T08:08:46.461Z,21.30
2018-03-15T08:11:14.985Z,19.80
2018-03-15T08:13:42.575Z,23.10
2018-03-15T08:16:10.139Z,20.40
2018-03-15T08:18:37.725Z,18.60
2018-03-15T08:21:05.328Z,20.30
2018-03-15T08:23:32.959Z,19.30
2018-03-15T08:26:00.551Z,18.30
2018-03-15T08:28:28.116Z,20.90
2018-03-15T08:30:55.701Z,17.80
2018-03-15T08:33:23.297Z,19.33
2018-03-15T08:35:50.917Z,16.60
2018-03-15T08:38:18.474Z,20.70
2018-03-15T08:40:46.030Z,27.13
2018-03-15T08:43:13.620Z,16.87
2018-03-15T08:45:41.951Z,17.53
2018-03-15T08:48:09.560Z,19.27
2018-03-15T08:50:38.097Z,17.70
2018-03-15T08:53:05.669Z,19.60
2018-03-15T08:55:33.268Z,14.73
2018-03-15T08:58:00.861Z,18.67
2018-03-15T09:00:28.434Z,15.83
2018-03-15T09:02:56.033Z,16.63
2018-03-15T09:05:24.358Z,18.87
2018-03-15T09:07:51.927Z,18.77
2018-03-15T09:10:19.519Z,15.40
2018-03-15T09:12:47.108Z,16.23
2018-03-15T09:15:14.682Z,17.87
2018-03-15T09:17:42.517Z,16.60
2018-03-15T09:20:11.785Z,18.97
2018-03-15T09:22:39.352Z,22.03
2018-03-15T09:25:07.927Z,19.00
2018-03-15T09:27:35.498Z,19.97
2018-03-15T09:30:03.097Z,18.50
2018-03-15T09:32:30.683Z,14.77
2018-03-15T09:34:59.331Z,15.03
2018-03-15T09:37:26.878Z,17.50
2018-03-15T09:39:54.500Z,17.37
2018-03-15T09:42:22.095Z,18.47
2018-03-15T09:44:49.746Z,17.00
2018-03-15T09:47:17.341Z,13.97
2018-03-15T09:49:44.933Z,14.20
2018-03-15T09:52:12.551Z,14.57
2018-03-15T09:54:40.155Z,15.03
2018-03-15T09:57:07.760Z,19.10
2018-03-15T09:59:35.343Z,19.13
2018-03-15T10:02:02.958Z,16.00
2018-03-15T10:04:31.339Z,14.70
2018-03-15T10:06:59.733Z,16.17
2018-03-15T10:09:28.105Z,13.87
2018-03-15T10:11:56.704Z,18.30
2018-03-15T10:14:24.310Z,15.90
2018-03-15T10:16:52.013Z,13.90
2018-03-15T10:19:19.760Z,14.07
2018-03-15T10:21:48.270Z,13.83
2018-03-15T10:24:16.661Z,13.77
2018-03-15T10:26:44.256Z,13.63
2018-03-15T10:29:12.639Z,14.80
2018-03-15T10:31:40.245Z,15.43
2018-03-15T10:34:07.858Z,14.73
2018-03-15T10:36:35.492Z,15.50
2018-03-15T10:39:03.085Z,14.60
2018-03-15T10:41:30.714Z,14.77
2018-03-15T10:43:58.304Z,15.07
2018-03-15T10:46:25.929Z,17.33
2018-03-15T10:48:53.538Z,17.03
2018-03-15T10:51:31.104Z,22.43
2018-03-15T10:53:58.694Z,18.00
2018-03-15T10:56:26.319Z,16.13
2018-03-15T10:58:53.956Z,16.70
2018-03-15T11:01:22.494Z,15.83
2018-03-15T11:03:50.107Z,18.30
2018-03-15T11:06:32.991Z,17.30
2018-03-15T11:09:01.378Z,18.07
2018-03-15T11:11:29.748Z,16.80
2018-03-15T11:13:58.120Z,17.10
2018-03-15T11:16:25.740Z,17.37
2018-03-15T11:18:53.545Z,18.27
2018-03-15T11:21:21.105Z,18.90
2018-03-15T11:23:50.751Z,16.87
2018-03-15T11:26:18.365Z,26.00
2018-03-15T11:28:45.970Z,13.97
2018-03-15T11:31:14.338Z,17.33
2018-03-15T11:33:42.730Z,14.23
2018-03-15T11:36:10.403Z,16.70
2018-03-15T11:38:38.024Z,15.13
2018-03-15T11:41:07.610Z,17.20
2018-03-15T11:43:35.244Z,18.10
2018-03-15T11:46:02.880Z,21.00
2018-03-15T11:48:30.474Z,19.07
2018-03-15T11:50:58.054Z,17.10
2018-03-15T11:53:25.663Z,19.70
2018-03-15T11:55:53.281Z,15.73
2018-03-15T11:58:20.886Z,17.60
2018-03-15T12:00:48.575Z,14.30
2018-03-15T12:03:16.227Z,16.90
2018-03-15T12:05:43.848Z,19.20
2018-03-15T12:08:12.214Z,19.10
2018-03-15T12:10:40.580Z,18.07
2018-03-15T12:13:08.211Z,22.57
2018-03-15T12:15:48.148Z,20.40
2018-03-15T12:18:15.776Z,14.80
2018-03-15T12:20:43.364Z,14.73
2018-03-15T12:23:11.740Z,17.77
2018-03-15T12:25:40.078Z,15.27
2018-03-15T12:28:07.695Z,18.70
2018-03-15T12:30:35.266Z,15.77
2018-03-15T12:33:02.847Z,15.40
2018-03-15T12:35:37.256Z,13.73
2018-03-15T12:38:04.828Z,14.80
2018-03-15T12:40:32.424Z,15.90
2018-03-15T12:43:00.004Z,15.33
2018-03-15T12:45:28.380Z,16.70
2018-03-15T12:47:56.746Z,14.40
2018-03-15T12:50:25.438Z,13.67
2018-03-15T12:52:52.987Z,13.00
2018-03-15T12:55:21.368Z,15.13
2018-03-15T12:57:49.714Z,15.30
2018-03-15T13:00:17.280Z,15.40
2018-03-15T13:02:44.887Z,13.33
2018-03-15T13:05:12.482Z,16.30
2018-03-15T13:07:40.840Z,14.97
2018-03-15T13:10:08.415Z,14.30
2018-03-15T13:12:35.986Z,14.07
2018-03-15T13:15:03.610Z,13.27
2018-03-15T13:17:31.186Z,13.53
2018-03-15T13:19:58.792Z,15.40
2018-03-15T13:22:26.367Z,13.63
2018-03-15T13:24:54.728Z,16.83
2018-03-15T13:27:22.323Z,17.70
2018-03-15T13:29:50.688Z,14.67
2018-03-15T13:32:19.044Z,16.07
2018-03-15T13:34:46.640Z,16.90
2018-03-15T13:37:14.990Z,14.93
2018-03-15T13:39:42.602Z,14.67
2018-03-15T13:42:10.200Z,17.03
2018-03-15T13:44:37.771Z,18.30
2018-03-15T13:47:10.440Z,14.97
2018-03-15T13:49:38.027Z,15.13
2018-03-15T13:52:06.384Z,18.60
2018-03-15T13:54:33.959Z,14.83
2018-03-15T13:57:02.406Z,16.53
2018-03-15T13:59:30.035Z,18.90
2018-03-15T14:01:57.635Z,17.60
2018-03-15T14:04:25.281Z,16.70
2018-03-15T14:06:52.864Z,19.97
2018-03-15T14:09:20.439Z,16.97
2018-03-15T14:11:48.034Z,17.47
2018-03-15T14:14:15.609Z,16.03
2018-03-15T14:16:47.069Z,16.40
2018-03-15T14:19:14.648Z,15.40
2018-03-15T14:21:42.971Z,16.53
2018-03-15T14:24:10.534Z,22.47
2018-03-15T14:26:38.117Z,15.40
2018-03-15T14:29:05.708Z,17.13
2018-03-15T14:31:33.286Z,16.80
2018-03-15T14:34:00.891Z,16.80
2018-03-15T14:36:35.711Z,17.60
2018-03-15T14:39:03.321Z,21.03
2018-03-15T14:41:31.490Z,16.00
2018-03-15T14:43:59.057Z,15.00
2018-03-15T14:46:26.639Z,15.07
2018-03-15T14:48:54.987Z,15.80
2018-03-15T14:51:29.016Z,18.83
2018-03-15T14:53:56.587Z,18.90
2018-03-15T14:56:24.956Z,15.40
2018-03-15T14:58:52.567Z,19.13
2018-03-15T15:01:20.158Z,16.17
2018-03-15T15:03:48.557Z,19.33
2018-03-15T15:06:16.192Z,18.00
2018-03-15T15:08:43.761Z,20.27
2018-03-15T15:11:30.990Z,17.23
2018-03-15T15:13:58.624Z,14.37
2018-03-15T15:16:26.189Z,15.53
2018-03-15T15:18:53.787Z,19.57
2018-03-15T15:21:22.157Z,14.93
2018-03-15T15:23:49.768Z,19.50
2018-03-15T15:26:17.368Z,20.07
2018-03-15T15:29:02.666Z,21.30
2018-03-15T15:31:31.028Z,24.10
2018-03-15T15:33:58.612Z,20.03
2018-03-15T15:36:26.992Z,19.30
2018-03-15T15:38:55.344Z,14.50
2018-03-15T15:41:22.964Z,17.33
2018-03-15T15:43:50.576Z,16.60
2018-03-15T15:46:18.915Z,17.20
2018-03-15T15:48:47.531Z,16.23
2018-03-15T15:51:16.068Z,16.80
2018-03-15T15:53:43.666Z,14.80
2018-03-15T15:56:11.315Z,17.00
2018-03-15T15:58:38.917Z,16.87
2018-03-15T16:01:06.496Z,19.20
2018-03-15T16:03:34.080Z,16.17
2018-03-15T16:06:01.682Z,16.07
2018-03-15T16:08:30.026Z,17.40
2018-03-15T16:10:57.630Z,15.50
2018-03-15T16:13:26.990Z,16.10
2018-03-15T16:15:54.666Z,13.93
2018-03-15T16:18:22.210Z,14.23
2018-03-15T16:20:59.783Z,13.90
2018-03-15T16:23:27.379Z,16.30
2018-03-15T16:25:54.981Z,15.77
2018-03-15T16:28:23.508Z,15.33
2018-03-15T16:30:51.082Z,15.73
2018-03-15T16:33:18.734Z,14.47
2018-03-15T16:35:46.370Z,15.47
2018-03-15T16:38:13.961Z,16.17
2018-03-15T16:40:41.565Z,14.63
2018-03-15T16:43:09.305Z,15.43
2018-03-15T16:45:36.876Z,19.17
2018-03-15T16:48:05.216Z,18.93
2018-03-15T16:50:47.667Z,15.07
2018-03-15T16:53:16.013Z,13.87
2018-03-15T16:55:43.614Z,13.83
2018-03-15T16:58:16.343Z,13.30
2018-03-15T17:00:43.936Z,13.50
2018-03-15T17:03:12.305Z,17.60
2018-03-15T17:05:39.924Z,18.60
2018-03-15T17:08:07.506Z,17.70
2018-03-15T17:10:35.153Z,12.50
2018-03-15T17:13:02.756Z,17.50
2018-03-15T17:15:31.086Z,14.90
2018-03-15T17:17:58.672Z,14.20
2018-03-15T17:20:31.668Z,14.20
2018-03-15T17:22:59.252Z,16.90
2018-03-15T17:25:27.671Z,15.60
2018-03-15T17:27:55.243Z,15.20
2018-03-15T17:30:22.873Z,19.40
2018-03-15T17:32:50.498Z,16.80
2018-03-15T17:35:18.151Z,14.90
2018-03-15T17:37:45.740Z,15.67
2018-03-15T17:40:14.172Z,17.87
2018-03-15T17:42:41.796Z,16.20
2018-03-15T17:45:10.108Z,14.20
2018-03-15T17:47:37.729Z,19.27
2018-03-15T17:50:07.276Z,17.60
2018-03-15T17:52:34.834Z,19.33
2018-03-15T17:55:02.419Z,19.67
2018-03-15T17:57:30.015Z,15.53
2018-03-15T17:59:57.711Z,14.10
2018-03-15T18:02:25.410Z,16.80
2018-03-15T18:04:53.059Z,21.50
2018-03-15T18:07:20.706Z,17.73
2018-03-15T18:09:48.278Z,17.90
2018-03-15T18:12:15.940Z,17.33
2018-03-15T18:14:43.550Z,17.37
2018-03-15T18:17:11.134Z,18.43
2018-03-15T18:19:38.754Z,17.90
2018-03-15T18:22:07.091Z,18.13
2018-03-15T18:24:34.679Z,21.53
2018-03-15T18:27:02.307Z,21.90
2018-03-15T18:29:29.904Z,23.97
2018-03-15T18:31:57.606Z,19.20
2018-03-15T18:34:28.853Z,19.77
2018-03-15T18:36:56.426Z,22.20
2018-03-15T18:39:24.112Z,18.67
2018-03-15T18:41:51.817Z,22.50
2018-03-15T18:44:24.116Z,21.50
2018-03-15T18:46:51.744Z,20.90
2018-03-15T18:49:20.184Z,19.13
2018-03-15T18:51:47.759Z,17.40
2018-03-15T18:54:15.367Z,17.23
2018-03-15T18:56:42.931Z,14.07
2018-03-15T18:59:10.531Z,19.63
2018-03-15T19:01:38.158Z,18.57
2018-03-15T19:04:05.735Z,30.73
2018-03-15T19:06:33.327Z,23.50
2018-03-15T19:09:01.721Z,20.20
2018-03-15T19:11:29.312Z,18.50
2018-03-15T19:13:56.906Z,15.00
2018-03-15T19:16:24.556Z,19.50
2018-03-15T19:18:52.121Z,18.30
2018-03-15T19:21:19.704Z,17.83
2018-03-15T19:23:47.271Z,21.33
2018-03-15T19:26:15.636Z,20.87
2018-03-15T19:28:43.215Z,16.37
2018-03-15T19:31:11.557Z,18.03
2018-03-15T19:33:39.141Z,12.67
2018-03-15T19:36:06.719Z,13.80
2018-03-15T19:38:34.304Z,13.23
2018-03-15T19:41:02.082Z,17.43
2018-03-15T19:43:29.685Z,16.10
2018-03-15T19:45:58.044Z,18.80
2018-03-15T19:48:25.643Z,17.23
2018-03-15T19:50:53.971Z,17.23
2018-03-15T19:53:22.322Z,16.87
2018-03-15T19:55:49.907Z,15.43
2018-03-15T19:58:18.271Z,15.37
2018-03-15T20:00:45.844Z,17.13
2018-03-15T20:03:13.432Z,19.20
2018-03-15T20:05:41.018Z,17.37
2018-03-15T20:08:09.353Z,16.20
2018-03-15T20:10:36.992Z,19.07
2018-03-15T20:13:05.351Z,19.37
2018-03-15T20:15:38.567Z,19.87
2018-03-15T20:18:06.144Z,14.90
2018-03-15T20:20:33.746Z,15.20
2018-03-15T20:23:07.827Z,17.80
2018-03-15T20:25:35.481Z,20.00
2018-03-15T20:28:08.700Z,19.50
2018-03-15T20:30:37.190Z,20.37
2018-03-15T20:33:11.115Z,23.53
2018-03-15T20:35:39.480Z,18.13
2018-03-15T20:38:07.859Z,19.17
2018-03-15T20:40:41.013Z,21.57
2018-03-15T20:43:08.677Z,29.57
2018-03-15T20:45:41.975Z,12.10
2018-03-15T20:48:15.143Z,23.17
2018-03-15T20:50:43.495Z,19.60
2018-03-15T20:53:11.088Z,13.60
2018-03-15T20:55:38.665Z,15.53
2018-03-15T20:58:07.768Z,12.40
2018-03-15T21:00:35.361Z,10.70
2018-03-15T21:03:02.942Z,9.60
